Pegasus Prime — DSQG5 — position and weather

sailwx.info

Track history (hours):
 
Tides and Currents Weather Stations Pressure Air Temp Water Temp Dewpoint Dewpoint Depression Visibility Wind Speed Wind Dir Waves Ship Positions

Pegasus Prime

Last reported at 2017-Nov-19 23:11 UTC. Time now 2017-Nov-22 14:50 UTC.
Position N 34°38' E 135°26'.

Length 127 m; draft 8 m.

Type: Cargo ship. MMSI: 441568000.

Date/timePositionNaut miles runAvg speedWind from/ knotsBaromVisibWave heightAir tempDewpointWater temp
2017-Nov-19 23:11N 34°38' E 135°26'0 0.8
2017-Nov-19 23:00N 34°38' E 135°26'3 6.4
2017-Nov-19 22:30N 34°38' E 135°23'611.7
2017-Nov-19 22:01N 34°35' E 135°16'713.8
2017-Nov-19 21:30N 34°35' E 135°08'812.9
2017-Nov-19 20:55N 34°37' E 134°59'513.2
2017-Nov-19 20:30N 34°35' E 134°53'  
2017-Nov-15 14:54N 34°34' E 134°48'511.9
2017-Nov-15 14:30N 34°35' E 134°54'611.2
2017-Nov-15 13:58N 34°38' E 135°00'611.8
2017-Nov-15 13:30N 34°36' E 135°07'713.7
2017-Nov-15 13:00N 34°37' E 135°15'2 5.0
2017-Nov-15 12:30N 34°40' E 135°14'0 0.1
2017-Nov-15 11:57N 34°40' E 135°14'0 0.0
2017-Nov-15 11:27N 34°40' E 135°14'0 0.0
2017-Nov-15 10:57N 34°40' E 135°14'0 0.0
2017-Nov-15 10:27N 34°40' E 135°14'0 0.0
2017-Nov-15 09:45N 34°40' E 135°14'0 0.0
2017-Nov-15 09:09N 34°40' E 135°14'0 0.0
2017-Nov-15 08:57N 34°40' E 135°14'0 0.0
2017-Nov-15 08:30N 34°40' E 135°14'1 2.9
2017-Nov-15 08:00N 34°39' E 135°15'4 7.6
2017-Nov-15 07:30N 34°37' E 135°19'4 7.3
2017-Nov-15 07:00N 34°38' E 135°24'2 4.7
2017-Nov-15 06:30N 34°38' E 135°26'0 0.0
2017-Nov-15 05:53N 34°38' E 135°26'0 0.0
2017-Nov-15 05:30N 34°38' E 135°26'0 0.0
2017-Nov-15 05:00N 34°38' E 135°26'0 0.0
2017-Nov-15 04:26N 34°38' E 135°26'0 0.0
2017-Nov-15 02:41N 34°38' E 135°26'0 0.0
2017-Nov-15 02:24N 34°38' E 135°26'0 0.0
2017-Nov-15 01:55N 34°38' E 135°26'0 0.0
2017-Nov-15 01:18N 34°38' E 135°26'0 0.0
2017-Nov-15 01:00N 34°38' E 135°26'0 0.0
2017-Nov-15 00:30N 34°38' E 135°26'0 0.0
2017-Nov-14 23:59N 34°38' E 135°26'0 0.0
2017-Nov-14 23:29N 34°38' E 135°26'0 0.0
2017-Nov-14 23:00N 34°38' E 135°26'0 0.0
2017-Nov-14 22:30N 34°38' E 135°26'1 1.9
2017-Nov-14 22:00N 34°39' E 135°25'5 9.5
2017-Nov-14 21:30N 34°36' E 135°20'713.8
2017-Nov-14 21:00N 34°35' E 135°12'714.0
2017-Nov-14 20:30N 34°35' E 135°04'610.2
2017-Nov-14 19:56N 34°36' E 134°57'  
2017-Nov-10 16:43N 34°32' E 134°44'314.4
2017-Nov-10 16:30N 34°33' E 134°48'714.8
2017-Nov-10 16:00N 34°37' E 134°56'713.9
2017-Nov-10 15:30N 34°36' E 135°04'713.9
2017-Nov-10 15:00N 34°37' E 135°13'3 6.2
2017-Nov-10 14:30N 34°40' E 135°14'0 0.2
2017-Nov-10 14:00N 34°40' E 135°14'0 0.0
2017-Nov-10 13:18N 34°40' E 135°14'0 0.0
2017-Nov-10 13:00N 34°40' E 135°14'0 0.0
2017-Nov-10 12:30N 34°40' E 135°14'0 0.0
2017-Nov-10 11:54N 34°40' E 135°14'0 0.0
2017-Nov-10 11:18N 34°40' E 135°14'0 0.0
2017-Nov-10 11:00N 34°40' E 135°14'0 0.0
2017-Nov-10 10:24N 34°40' E 135°14'0 0.0
2017-Nov-10 10:00N 34°40' E 135°14'0 0.0
2017-Nov-10 09:30N 34°40' E 135°14'0 0.0
2017-Nov-10 09:00N 34°40' E 135°14'0 0.0
2017-Nov-10 08:24N 34°40' E 135°14'1 1.4
2017-Nov-10 08:00N 34°40' E 135°14'4 8.8
2017-Nov-10 07:30N 34°37' E 135°19'4 7.2
2017-Nov-10 07:00N 34°38' E 135°23'3 5.1
2017-Nov-10 06:28N 34°38' E 135°26'0 0.0
2017-Nov-10 05:58N 34°38' E 135°26'0 0.0
2017-Nov-10 05:28N 34°38' E 135°26'0 0.0
2017-Nov-10 04:46N 34°38' E 135°26'0 0.0
2017-Nov-10 04:16N 34°38' E 135°26'0 0.0
2017-Nov-10 03:58N 34°38' E 135°26'0 0.0
2017-Nov-10 03:28N 34°38' E 135°26'0 0.0
2017-Nov-10 02:52N 34°38' E 135°26'0 0.0
2017-Nov-10 01:16N 34°38' E 135°26'0 0.0
2017-Nov-10 00:52N 34°38' E 135°26'0 0.0
2017-Nov-10 00:28N 34°38' E 135°26'0 0.0
2017-Nov-09 23:34N 34°38' E 135°26'0 0.1
2017-Nov-09 23:28N 34°38' E 135°26'  
Track history (hours):
 
Tides and Currents Weather Stations Pressure Air Temp Water Temp Dewpoint Dewpoint Depression Visibility Wind Speed Wind Dir Waves Ship Positions

Pegasus Prime

Last reported at 2017-Nov-19 23:11 UTC. Time now 2017-Nov-22 14:50 UTC.
Position N 34°38' E 135°26'.

Length 127 m; draft 8 m.

Type: Cargo ship. MMSI: 441568000.

Date/timePositionNaut miles runAvg speedWind from/ knotsBaromVisibWave heightAir tempDewpointWater temp
2017-Nov-19 23:11N 34°38' E 135°26'0 0.8
2017-Nov-19 23:00N 34°38' E 135°26'3 6.4
2017-Nov-19 22:30N 34°38' E 135°23'611.7
2017-Nov-19 22:01N 34°35' E 135°16'713.8
2017-Nov-19 21:30N 34°35' E 135°08'812.9
2017-Nov-19 20:55N 34°37' E 134°59'513.2
2017-Nov-19 20:30N 34°35' E 134°53'  
2017-Nov-15 14:54N 34°34' E 134°48'511.9
2017-Nov-15 14:30N 34°35' E 134°54'611.2
2017-Nov-15 13:58N 34°38' E 135°00'611.8
2017-Nov-15 13:30N 34°36' E 135°07'713.7
2017-Nov-15 13:00N 34°37' E 135°15'2 5.0
2017-Nov-15 12:30N 34°40' E 135°14'0 0.1
2017-Nov-15 11:57N 34°40' E 135°14'0 0.0
2017-Nov-15 11:27N 34°40' E 135°14'0 0.0
2017-Nov-15 10:57N 34°40' E 135°14'0 0.0
2017-Nov-15 10:27N 34°40' E 135°14'0 0.0
2017-Nov-15 09:45N 34°40' E 135°14'0 0.0
2017-Nov-15 09:09N 34°40' E 135°14'0 0.0
2017-Nov-15 08:57N 34°40' E 135°14'0 0.0
2017-Nov-15 08:30N 34°40' E 135°14'1 2.9
2017-Nov-15 08:00N 34°39' E 135°15'4 7.6
2017-Nov-15 07:30N 34°37' E 135°19'4 7.3
2017-Nov-15 07:00N 34°38' E 135°24'2 4.7
2017-Nov-15 06:30N 34°38' E 135°26'0 0.0
2017-Nov-15 05:53N 34°38' E 135°26'0 0.0
2017-Nov-15 05:30N 34°38' E 135°26'0 0.0
2017-Nov-15 05:00N 34°38' E 135°26'0 0.0
2017-Nov-15 04:26N 34°38' E 135°26'0 0.0
2017-Nov-15 02:41N 34°38' E 135°26'0 0.0
2017-Nov-15 02:24N 34°38' E 135°26'0 0.0
2017-Nov-15 01:55N 34°38' E 135°26'0 0.0
2017-Nov-15 01:18N 34°38' E 135°26'0 0.0
2017-Nov-15 01:00N 34°38' E 135°26'0 0.0
2017-Nov-15 00:30N 34°38' E 135°26'0 0.0
2017-Nov-14 23:59N 34°38' E 135°26'0 0.0
2017-Nov-14 23:29N 34°38' E 135°26'0 0.0
2017-Nov-14 23:00N 34°38' E 135°26'0 0.0
2017-Nov-14 22:30N 34°38' E 135°26'1 1.9
2017-Nov-14 22:00N 34°39' E 135°25'5 9.5
2017-Nov-14 21:30N 34°36' E 135°20'713.8
2017-Nov-14 21:00N 34°35' E 135°12'714.0
2017-Nov-14 20:30N 34°35' E 135°04'610.2
2017-Nov-14 19:56N 34°36' E 134°57'  
2017-Nov-10 16:43N 34°32' E 134°44'314.4
2017-Nov-10 16:30N 34°33' E 134°48'714.8
2017-Nov-10 16:00N 34°37' E 134°56'713.9
2017-Nov-10 15:30N 34°36' E 135°04'713.9
2017-Nov-10 15:00N 34°37' E 135°13'3 6.2
2017-Nov-10 14:30N 34°40' E 135°14'0 0.2
2017-Nov-10 14:00N 34°40' E 135°14'0 0.0
2017-Nov-10 13:18N 34°40' E 135°14'0 0.0
2017-Nov-10 13:00N 34°40' E 135°14'0 0.0
2017-Nov-10 12:30N 34°40' E 135°14'0 0.0
2017-Nov-10 11:54N 34°40' E 135°14'0 0.0
2017-Nov-10 11:18N 34°40' E 135°14'0 0.0
2017-Nov-10 11:00N 34°40' E 135°14'0 0.0
2017-Nov-10 10:24N 34°40' E 135°14'0 0.0
2017-Nov-10 10:00N 34°40' E 135°14'0 0.0
2017-Nov-10 09:30N 34°40' E 135°14'0 0.0
2017-Nov-10 09:00N 34°40' E 135°14'0 0.0
2017-Nov-10 08:24N 34°40' E 135°14'1 1.4
2017-Nov-10 08:00N 34°40' E 135°14'4 8.8
2017-Nov-10 07:30N 34°37' E 135°19'4 7.2
2017-Nov-10 07:00N 34°38' E 135°23'3 5.1
2017-Nov-10 06:28N 34°38' E 135°26'0 0.0
2017-Nov-10 05:58N 34°38' E 135°26'0 0.0
2017-Nov-10 05:28N 34°38' E 135°26'0 0.0
2017-Nov-10 04:46N 34°38' E 135°26'0 0.0
2017-Nov-10 04:16N 34°38' E 135°26'0 0.0
2017-Nov-10 03:58N 34°38' E 135°26'0 0.0
2017-Nov-10 03:28N 34°38' E 135°26'0 0.0
2017-Nov-10 02:52N 34°38' E 135°26'0 0.0
2017-Nov-10 01:16N 34°38' E 135°26'0 0.0
2017-Nov-10 00:52N 34°38' E 135°26'0 0.0
2017-Nov-10 00:28N 34°38' E 135°26'0 0.0
2017-Nov-09 23:34N 34°38' E 135°26'0 0.1
2017-Nov-09 23:28N 34°38' E 135°26'  

Dump ship's entire track history